createdAt,value
2022-08-26T00:00:22.948Z,24.04
2022-08-26T00:01:24.323Z,23.99
2022-08-26T00:02:23.979Z,23.94
2022-08-26T00:03:22.944Z,23.92
2022-08-26T00:04:22.996Z,23.89
2022-08-26T00:05:22.903Z,23.84
2022-08-26T00:06:22.891Z,23.89
2022-08-26T00:07:22.899Z,23.86
2022-08-26T00:08:23.874Z,23.75
2022-08-26T00:09:22.863Z,23.78
2022-08-26T00:10:22.852Z,23.75
2022-08-26T00:11:26.861Z,23.75
2022-08-26T00:12:31.480Z,23.68
2022-08-26T00:13:23.825Z,23.78
2022-08-26T00:14:25.936Z,23.81
2022-08-26T00:15:23.806Z,23.67
2022-08-26T00:16:22.832Z,23.74
2022-08-26T00:17:22.815Z,23.74
2022-08-26T00:18:22.844Z,23.64
2022-08-26T00:19:22.766Z,23.57
2022-08-26T00:20:22.766Z,23.67
2022-08-26T00:21:22.750Z,23.60
2022-08-26T00:22:22.768Z,23.57
2022-08-26T00:23:24.076Z,23.52
2022-08-26T00:24:22.722Z,23.59
2022-08-26T00:25:22.715Z,23.56
2022-08-26T00:26:22.703Z,23.60
2022-08-26T00:27:23.726Z,23.47
2022-08-26T00:28:22.688Z,23.57
2022-08-26T00:29:22.761Z,23.56
2022-08-26T00:30:22.880Z,23.52
2022-08-26T00:31:22.686Z,23.47
2022-08-26T00:32:22.651Z,23.44
2022-08-26T00:33:22.656Z,23.47
2022-08-26T00:34:22.630Z,23.35
2022-08-26T00:35:22.621Z,23.39
2022-08-26T00:36:22.617Z,23.35
2022-08-26T00:37:22.640Z,23.35
2022-08-26T00:38:22.941Z,23.41
2022-08-26T00:39:22.583Z,23.34
2022-08-26T00:40:22.609Z,23.32
2022-08-26T00:41:22.564Z,23.32
2022-08-26T00:42:22.557Z,23.35
2022-08-26T00:43:22.558Z,23.21
2022-08-26T00:44:22.530Z,23.29
2022-08-26T00:45:22.524Z,23.25
2022-08-26T00:46:22.515Z,23.29
2022-08-26T00:47:22.509Z,23.18
2022-08-26T00:48:22.511Z,23.15
2022-08-26T00:49:22.485Z,23.16
2022-08-26T00:50:22.474Z,23.06
2022-08-26T00:51:22.466Z,23.11
2022-08-26T00:52:22.457Z,23.16
2022-08-26T00:53:23.992Z,23.07
2022-08-26T00:54:22.434Z,23.07
2022-08-26T00:55:22.423Z,23.16
2022-08-26T00:56:22.422Z,23.07
2022-08-26T00:57:22.406Z,23.06
2022-08-26T00:58:22.438Z,23.09
2022-08-26T00:59:22.387Z,22.99
2022-08-26T01:00:22.388Z,23.04
2022-08-26T01:01:23.103Z,22.97
2022-08-26T01:02:22.385Z,22.99
2022-08-26T01:03:22.352Z,22.99
2022-08-26T01:04:22.358Z,22.99
2022-08-26T01:05:22.335Z,22.97
2022-08-26T01:06:22.324Z,22.94
2022-08-26T01:07:22.316Z,22.99
2022-08-26T01:08:22.303Z,22.99
2022-08-26T01:09:22.308Z,22.97
2022-08-26T01:10:22.281Z,22.86
2022-08-26T01:11:22.275Z,23.00
2022-08-26T01:12:22.356Z,22.99
2022-08-26T01:13:22.253Z,22.97
2022-08-26T01:14:22.264Z,22.91
2022-08-26T01:15:22.245Z,22.86
2022-08-26T01:16:22.279Z,22.86
2022-08-26T01:17:22.235Z,22.89
2022-08-26T01:18:22.224Z,22.84
2022-08-26T01:19:22.215Z,22.88
2022-08-26T01:20:22.189Z,22.75
2022-08-26T01:21:22.178Z,22.79
2022-08-26T01:22:22.169Z,22.81
2022-08-26T01:23:23.161Z,22.82
2022-08-26T01:24:22.195Z,22.81
2022-08-26T01:25:22.154Z,22.81
2022-08-26T01:26:23.132Z,22.79
2022-08-26T01:27:22.125Z,22.78
2022-08-26T01:28:22.117Z,22.78
2022-08-26T01:29:22.141Z,22.78
2022-08-26T01:30:22.096Z,22.78
2022-08-26T01:31:22.123Z,22.75
2022-08-26T01:32:22.075Z,22.67
2022-08-26T01:33:22.059Z,22.69
2022-08-26T01:34:22.056Z,22.69
2022-08-26T01:35:22.080Z,22.66
2022-08-26T01:36:22.044Z,22.61
2022-08-26T01:37:22.026Z,22.66
2022-08-26T01:38:22.011Z,22.63
2022-08-26T01:39:22.000Z,22.67
2022-08-26T01:40:22.042Z,22.63
2022-08-26T01:41:27.210Z,22.63
2022-08-26T01:42:22.972Z,22.64
2022-08-26T01:43:21.965Z,22.56
2022-08-26T01:44:21.946Z,22.66
2022-08-26T01:45:22.058Z,22.59
2022-08-26T01:46:21.938Z,22.54
2022-08-26T01:47:21.939Z,22.60
2022-08-26T01:48:21.917Z,22.57
2022-08-26T01:49:21.909Z,22.52
2022-08-26T01:50:27.783Z,22.52
2022-08-26T01:51:22.892Z,22.41
2022-08-26T01:52:21.881Z,22.48
2022-08-26T01:53:21.871Z,22.45
2022-08-26T01:54:22.948Z,22.44
2022-08-26T01:55:29.284Z,22.44
2022-08-26T01:56:22.841Z,22.44
2022-08-26T01:57:21.831Z,22.45
2022-08-26T01:58:21.831Z,22.45
2022-08-26T01:59:21.818Z,22.42
2022-08-26T02:00:21.835Z,22.48
2022-08-26T02:01:21.858Z,22.44
2022-08-26T02:02:21.787Z,22.48
2022-08-26T02:03:21.774Z,22.44
2022-08-26T02:04:21.776Z,22.44
2022-08-26T02:05:21.797Z,22.41
2022-08-26T02:06:21.748Z,22.33
2022-08-26T02:07:21.737Z,22.24
2022-08-26T02:08:24.989Z,22.29
2022-08-26T02:09:21.714Z,22.23
2022-08-26T02:10:21.710Z,22.24
2022-08-26T02:11:21.711Z,22.17
2022-08-26T02:12:21.687Z,22.19
2022-08-26T02:13:21.683Z,22.20
2022-08-26T02:14:21.672Z,22.23
2022-08-26T02:15:21.661Z,22.20
2022-08-26T02:16:21.718Z,22.21
2022-08-26T02:17:21.643Z,22.20
2022-08-26T02:18:21.631Z,22.15
2022-08-26T02:19:21.621Z,22.06
2022-08-26T02:20:21.615Z,22.19
2022-08-26T02:21:21.623Z,22.19
2022-08-26T02:22:21.594Z,22.21
2022-08-26T02:23:21.584Z,22.21
2022-08-26T02:24:21.575Z,22.17
2022-08-26T02:25:53.477Z,22.15
2022-08-26T02:26:21.554Z,22.14
2022-08-26T02:27:21.545Z,22.19
2022-08-26T02:28:21.532Z,22.19
2022-08-26T02:29:22.524Z,22.08
2022-08-26T02:30:21.520Z,22.15
2022-08-26T02:31:21.558Z,22.09
2022-08-26T02:32:21.498Z,22.08
2022-08-26T02:33:21.489Z,22.05
2022-08-26T02:34:21.487Z,22.11
2022-08-26T02:35:21.472Z,22.06
2022-08-26T02:36:21.477Z,22.06
2022-08-26T02:37:22.996Z,22.01
2022-08-26T02:38:21.453Z,22.01
2022-08-26T02:39:22.059Z,21.96
2022-08-26T02:40:21.467Z,21.94
2022-08-26T02:41:21.424Z,21.98
2022-08-26T02:42:21.401Z,21.96
2022-08-26T02:43:31.536Z,21.96
2022-08-26T02:44:22.382Z,21.90
2022-08-26T02:45:23.164Z,21.89
2022-08-26T02:46:29.750Z,22.01
2022-08-26T02:47:24.919Z,21.90
2022-08-26T02:48:21.345Z,21.94
2022-08-26T02:49:21.332Z,21.93
2022-08-26T02:50:21.327Z,21.96
2022-08-26T02:51:21.328Z,21.86
2022-08-26T02:52:21.303Z,21.85
2022-08-26T02:53:25.208Z,21.83
2022-08-26T02:54:22.288Z,21.90
2022-08-26T02:55:21.277Z,21.82
2022-08-26T02:56:21.318Z,21.90
2022-08-26T02:57:21.253Z,21.81
2022-08-26T02:58:21.249Z,21.86
2022-08-26T02:59:24.501Z,21.71
2022-08-26T03:00:21.244Z,21.82
2022-08-26T03:01:21.287Z,21.81
2022-08-26T03:02:22.297Z,21.89
2022-08-26T03:03:22.555Z,21.68
2022-08-26T03:04:21.189Z,21.74
2022-08-26T03:05:21.173Z,21.74
2022-08-26T03:06:21.197Z,21.67
2022-08-26T03:07:21.158Z,21.75
2022-08-26T03:08:21.171Z,21.74
2022-08-26T03:09:21.133Z,21.71
2022-08-26T03:10:21.129Z,21.73
2022-08-26T03:11:21.118Z,21.68
2022-08-26T03:12:21.121Z,21.71
2022-08-26T03:13:21.100Z,21.61
2022-08-26T03:14:21.084Z,21.70
2022-08-26T03:15:21.077Z,21.70
2022-08-26T03:16:21.147Z,21.75
2022-08-26T03:17:21.104Z,21.67
2022-08-26T03:18:21.049Z,21.68
2022-08-26T03:19:21.042Z,21.68
2022-08-26T03:20:21.031Z,21.64
2022-08-26T03:21:21.023Z,21.63
2022-08-26T03:22:21.024Z,21.66
2022-08-26T03:23:21.009Z,21.55
2022-08-26T03:24:20.991Z,21.64
2022-08-26T03:25:20.987Z,21.52
2022-08-26T03:26:20.971Z,21.56
2022-08-26T03:27:20.975Z,21.49
2022-08-26T03:28:20.951Z,21.61
2022-08-26T03:29:20.945Z,21.66
2022-08-26T03:30:20.939Z,21.71
2022-08-26T03:31:20.951Z,21.58
2022-08-26T03:32:20.944Z,21.67
2022-08-26T03:33:20.905Z,21.75
2022-08-26T03:34:20.897Z,21.64
2022-08-26T03:35:22.435Z,21.66
2022-08-26T03:36:20.876Z,21.71
2022-08-26T03:37:20.909Z,21.66
2022-08-26T03:38:20.866Z,21.73
2022-08-26T03:39:20.846Z,21.68
2022-08-26T03:40:20.921Z,21.55
2022-08-26T03:41:20.825Z,21.56
2022-08-26T03:42:21.472Z,21.63
2022-08-26T03:43:20.825Z,21.53
2022-08-26T03:44:20.801Z,21.55
2022-08-26T03:45:20.793Z,21.59
2022-08-26T03:46:21.055Z,21.58
2022-08-26T03:47:20.768Z,21.53
2022-08-26T03:48:21.008Z,21.49
2022-08-26T03:49:20.755Z,21.58
2022-08-26T03:50:22.573Z,21.61
2022-08-26T03:51:20.736Z,21.64
2022-08-26T03:52:20.721Z,21.68
2022-08-26T03:53:20.731Z,21.61
2022-08-26T03:54:20.703Z,21.68
2022-08-26T03:55:20.694Z,21.59
2022-08-26T03:56:20.687Z,21.59
2022-08-26T03:57:20.674Z,21.64
2022-08-26T03:58:20.694Z,21.59
2022-08-26T03:59:20.659Z,21.48
2022-08-26T04:00:20.650Z,21.52
2022-08-26T04:01:20.671Z,21.55
2022-08-26T04:02:20.634Z,21.43
2022-08-26T04:03:20.680Z,21.56
2022-08-26T04:04:22.729Z,21.45
2022-08-26T04:05:20.598Z,21.52
2022-08-26T04:06:20.592Z,21.52
2022-08-26T04:07:20.597Z,21.58
2022-08-26T04:08:20.601Z,21.49
2022-08-26T04:09:20.797Z,21.66
2022-08-26T04:10:20.554Z,21.58
2022-08-26T04:11:20.541Z,21.49
2022-08-26T04:12:20.541Z,21.53
2022-08-26T04:13:20.553Z,21.45
2022-08-26T04:14:20.513Z,21.58
2022-08-26T04:15:20.503Z,21.51
2022-08-26T04:16:20.566Z,21.49
2022-08-26T04:17:20.487Z,21.52
2022-08-26T04:18:20.475Z,21.55
2022-08-26T04:19:20.488Z,21.53
2022-08-26T04:20:20.452Z,21.46
2022-08-26T04:21:20.445Z,21.48
2022-08-26T04:22:24.410Z,21.51
2022-08-26T04:23:20.445Z,21.53
2022-08-26T04:24:20.432Z,21.49
2022-08-26T04:25:20.488Z,21.48
2022-08-26T04:26:20.403Z,21.48
2022-08-26T04:27:20.392Z,21.52
2022-08-26T04:28:20.377Z,21.46
2022-08-26T04:29:20.395Z,21.52
2022-08-26T04:30:20.360Z,21.55
2022-08-26T04:31:20.381Z,21.49
2022-08-26T04:32:20.337Z,21.53
2022-08-26T04:33:29.433Z,21.53
2022-08-26T04:34:21.363Z,21.49
2022-08-26T04:35:25.834Z,21.49
2022-08-26T04:36:22.300Z,21.51
2022-08-26T04:37:20.294Z,21.48
2022-08-26T04:38:20.280Z,21.45
2022-08-26T04:39:20.270Z,21.46
2022-08-26T04:40:20.302Z,21.34
2022-08-26T04:41:20.255Z,21.36
2022-08-26T04:42:23.315Z,21.40
2022-08-26T04:43:22.230Z,21.31
2022-08-26T04:44:20.219Z,21.38
2022-08-26T04:45:22.792Z,21.26
2022-08-26T04:46:20.262Z,21.27
2022-08-26T04:47:20.194Z,21.28
2022-08-26T04:48:20.182Z,21.36
2022-08-26T04:49:20.166Z,21.27
2022-08-26T04:50:20.207Z,21.37
2022-08-26T04:51:20.155Z,21.34
2022-08-26T04:52:20.140Z,21.53
2022-08-26T04:53:20.134Z,21.49
2022-08-26T04:54:20.124Z,21.46
2022-08-26T04:55:20.159Z,21.51
2022-08-26T04:56:21.104Z,21.53
2022-08-26T04:57:20.096Z,21.52
2022-08-26T04:58:20.091Z,21.67
2022-08-26T04:59:20.073Z,21.49
2022-08-26T05:00:20.067Z,21.49
2022-08-26T05:01:20.147Z,21.64
2022-08-26T05:02:20.045Z,21.66
2022-08-26T05:03:20.043Z,21.61
2022-08-26T05:04:20.066Z,21.61
2022-08-26T05:05:20.017Z,21.63
2022-08-26T05:06:20.020Z,21.67
2022-08-26T05:07:19.998Z,21.68
2022-08-26T05:08:19.987Z,21.70
2022-08-26T05:09:19.975Z,21.74
2022-08-26T05:10:19.968Z,21.67
2022-08-26T05:11:19.976Z,21.75
2022-08-26T05:12:19.961Z,21.67
2022-08-26T05:13:20.489Z,21.71
2022-08-26T05:14:19.928Z,21.67
2022-08-26T05:15:19.916Z,21.73
2022-08-26T05:16:19.972Z,21.75
2022-08-26T05:17:19.898Z,21.90
2022-08-26T05:18:20.115Z,21.89
2022-08-26T05:19:19.880Z,21.93
2022-08-26T05:20:25.133Z,21.90
2022-08-26T05:21:21.905Z,21.86
2022-08-26T05:22:19.850Z,22.02
2022-08-26T05:23:19.838Z,21.90
2022-08-26T05:24:19.829Z,21.75
2022-08-26T05:25:19.818Z,21.91
2022-08-26T05:26:23.070Z,21.99
2022-08-26T05:27:19.823Z,21.98
2022-08-26T05:28:19.796Z,21.91
2022-08-26T05:29:19.781Z,21.93
2022-08-26T05:30:19.775Z,21.96
2022-08-26T05:31:19.826Z,22.04
2022-08-26T05:32:19.771Z,22.02
2022-08-26T05:33:19.743Z,21.96
2022-08-26T05:34:19.737Z,21.73
2022-08-26T05:35:19.751Z,21.71
2022-08-26T05:36:19.732Z,21.59
2022-08-26T05:37:19.723Z,21.61
2022-08-26T05:38:19.699Z,21.49
2022-08-26T05:39:19.684Z,21.49
2022-08-26T05:40:19.724Z,21.34
2022-08-26T05:41:19.699Z,21.12
2022-08-26T05:42:19.872Z,21.05
2022-08-26T05:43:20.036Z,20.98
2022-08-26T05:44:19.641Z,20.88
2022-08-26T05:45:19.644Z,20.94
2022-08-26T05:46:19.675Z,21.01
2022-08-26T05:47:19.628Z,21.08
2022-08-26T05:48:22.881Z,21.16
2022-08-26T05:49:20.594Z,21.27
2022-08-26T05:50:20.581Z,21.30
2022-08-26T05:51:22.821Z,21.30
2022-08-26T05:52:20.579Z,21.27
2022-08-26T05:53:19.576Z,21.26
2022-08-26T05:54:21.866Z,21.09
2022-08-26T05:55:19.538Z,21.11
2022-08-26T05:56:19.542Z,21.26
2022-08-26T05:57:19.536Z,21.24
2022-08-26T05:58:19.511Z,21.31
2022-08-26T05:59:24.374Z,21.51
2022-08-26T06:00:20.485Z,21.64
2022-08-26T06:01:19.515Z,21.64
2022-08-26T06:02:19.550Z,21.64
2022-08-26T06:03:19.458Z,21.63
2022-08-26T06:04:19.981Z,21.52
2022-08-26T06:05:19.445Z,21.45
2022-08-26T06:06:20.734Z,21.45
2022-08-26T06:07:20.435Z,21.67
2022-08-26T06:08:19.655Z,21.75
2022-08-26T06:09:19.440Z,21.91
2022-08-26T06:10:32.026Z,22.02
2022-08-26T06:11:21.410Z,22.19
2022-08-26T06:12:19.370Z,22.33
2022-08-26T06:13:19.362Z,22.45
2022-08-26T06:14:19.353Z,22.49
2022-08-26T06:15:19.349Z,22.63
2022-08-26T06:16:19.394Z,22.74
2022-08-26T06:17:19.340Z,22.79
2022-08-26T06:18:19.311Z,22.99
2022-08-26T06:19:19.305Z,23.18
2022-08-26T06:20:19.296Z,23.31
2022-08-26T06:21:19.284Z,23.47
2022-08-26T06:22:22.312Z,23.67
2022-08-26T06:23:20.263Z,23.96
2022-08-26T06:24:19.254Z,24.26
2022-08-26T06:25:19.245Z,24.53
2022-08-26T06:26:19.235Z,24.75
2022-08-26T06:27:19.248Z,24.84
2022-08-26T06:28:19.215Z,24.98
2022-08-26T06:29:24.420Z,25.16
2022-08-26T06:30:20.201Z,25.34
2022-08-26T06:31:19.211Z,25.85
2022-08-26T06:32:19.217Z,26.16
2022-08-26T06:33:19.164Z,26.51
2022-08-26T06:34:19.151Z,26.98
2022-08-26T06:35:19.148Z,27.28
2022-08-26T06:36:19.141Z,27.69
2022-08-26T06:37:19.155Z,28.24
2022-08-26T06:38:19.120Z,28.55
2022-08-26T06:39:19.107Z,28.85
2022-08-26T06:40:19.179Z,29.11
2022-08-26T06:41:19.092Z,29.33
2022-08-26T06:42:19.076Z,29.60
2022-08-26T06:43:19.113Z,30.08
2022-08-26T06:44:19.058Z,30.38
2022-08-26T06:45:19.048Z,30.70
2022-08-26T06:46:19.071Z,30.82
2022-08-26T06:47:19.030Z,31.03
2022-08-26T06:48:19.045Z,31.04
2022-08-26T06:49:27.233Z,31.13
2022-08-26T06:50:20.000Z,31.22
2022-08-26T06:51:18.992Z,31.16
2022-08-26T06:52:23.062Z,30.82
2022-08-26T06:53:21.074Z,30.37
2022-08-26T06:54:18.962Z,29.97
2022-08-26T06:55:18.960Z,29.57
2022-08-26T06:56:18.952Z,29.12
2022-08-26T06:57:18.940Z,28.74
2022-08-26T06:58:18.928Z,28.50
2022-08-26T06:59:18.935Z,28.14
2022-08-26T07:00:18.910Z,27.81
2022-08-26T07:01:19.628Z,27.62
2022-08-26T07:02:18.944Z,27.52
2022-08-26T07:03:18.926Z,27.24
2022-08-26T07:04:20.313Z,27.15
2022-08-26T07:05:18.867Z,27.01
2022-08-26T07:06:18.856Z,26.79
2022-08-26T07:07:18.835Z,26.73
2022-08-26T07:08:19.840Z,26.53
2022-08-26T07:09:18.868Z,26.66
2022-08-26T07:10:18.823Z,26.79
2022-08-26T07:11:18.807Z,26.75
2022-08-26T07:12:18.805Z,26.59
2022-08-26T07:13:29.956Z,26.47
2022-08-26T07:14:21.501Z,26.32
2022-08-26T07:15:18.776Z,26.32
2022-08-26T07:16:19.852Z,26.13
2022-08-26T07:17:18.815Z,25.57
2022-08-26T07:18:18.746Z,25.42
2022-08-26T07:19:19.009Z,25.20
2022-08-26T07:20:19.745Z,25.20
2022-08-26T07:21:18.767Z,24.71
2022-08-26T07:22:18.711Z,24.55
2022-08-26T07:23:18.694Z,24.44
2022-08-26T07:24:18.690Z,24.42
2022-08-26T07:25:19.204Z,24.42
2022-08-26T07:26:18.676Z,24.16
2022-08-26T07:27:18.736Z,24.04
2022-08-26T07:28:18.678Z,24.12
2022-08-26T07:29:18.642Z,24.00
2022-08-26T07:30:18.811Z,24.12
2022-08-26T07:31:18.728Z,24.14
2022-08-26T07:32:18.660Z,24.06
2022-08-26T07:33:18.607Z,23.97
2022-08-26T07:34:18.672Z,23.77
2022-08-26T07:35:18.602Z,23.87
2022-08-26T07:36:18.595Z,23.90
2022-08-26T07:37:18.571Z,24.04
2022-08-26T07:38:18.560Z,24.06
2022-08-26T07:39:18.553Z,24.12
2022-08-26T07:40:18.644Z,23.99
2022-08-26T07:41:18.571Z,24.06
2022-08-26T07:42:18.646Z,23.89
2022-08-26T07:43:18.572Z,23.93
2022-08-26T07:44:18.506Z,23.75
2022-08-26T07:45:18.507Z,23.71
2022-08-26T07:46:18.574Z,23.75
2022-08-26T07:47:24.666Z,23.72
2022-08-26T07:48:19.474Z,23.74
2022-08-26T07:49:18.523Z,23.93
2022-08-26T07:50:18.447Z,23.92
2022-08-26T07:51:18.462Z,23.99
2022-08-26T07:52:20.672Z,24.02
2022-08-26T07:53:19.490Z,24.15
2022-08-26T07:54:18.746Z,24.15
2022-08-26T07:55:18.397Z,24.26
2022-08-26T07:56:18.392Z,24.33
2022-08-26T07:57:19.077Z,24.48
2022-08-26T07:58:18.369Z,24.53
2022-08-26T07:59:18.467Z,24.59
2022-08-26T08:00:18.356Z,24.71
2022-08-26T08:01:18.398Z,24.66
2022-08-26T08:02:18.351Z,24.60
2022-08-26T08:03:18.329Z,24.61
2022-08-26T08:04:19.433Z,24.53
2022-08-26T08:05:19.388Z,24.55
2022-08-26T08:06:18.298Z,24.55
2022-08-26T08:07:18.312Z,24.52
2022-08-26T08:08:26.602Z,24.61
2022-08-26T08:09:19.350Z,24.59
2022-08-26T08:10:18.617Z,24.56
2022-08-26T08:11:18.249Z,24.52
2022-08-26T08:12:18.273Z,24.64
2022-08-26T08:13:18.235Z,24.68
2022-08-26T08:14:18.232Z,24.70
2022-08-26T08:15:18.211Z,24.74
2022-08-26T08:16:18.281Z,24.89
2022-08-26T08:17:18.226Z,24.97
2022-08-26T08:18:20.376Z,25.09
2022-08-26T08:19:18.235Z,25.07
2022-08-26T08:20:18.167Z,25.04
2022-08-26T08:21:22.172Z,25.16
2022-08-26T08:22:20.178Z,25.24
2022-08-26T08:23:18.138Z,25.39
2022-08-26T08:24:18.124Z,25.35
2022-08-26T08:25:18.178Z,25.26
2022-08-26T08:26:49.998Z,25.39
2022-08-26T08:27:23.476Z,25.48
2022-08-26T08:28:19.088Z,25.54
2022-08-26T08:29:18.244Z,25.66
2022-08-26T08:30:20.798Z,25.72
2022-08-26T08:31:21.609Z,25.67
2022-08-26T08:32:19.080Z,25.59
2022-08-26T08:33:18.062Z,25.54
2022-08-26T08:34:18.136Z,25.57
2022-08-26T08:35:18.024Z,25.56
2022-08-26T08:36:18.630Z,25.46
2022-08-26T08:37:18.007Z,25.45
2022-08-26T08:38:18.014Z,25.59
2022-08-26T08:39:18.028Z,25.63
2022-08-26T08:40:18.107Z,25.67
2022-08-26T08:41:17.969Z,25.67
2022-08-26T08:42:17.956Z,25.64
2022-08-26T08:43:17.965Z,25.74
2022-08-26T08:44:18.040Z,25.75
2022-08-26T08:45:18.392Z,25.76
2022-08-26T08:46:17.936Z,25.86
2022-08-26T08:47:17.897Z,26.03
2022-08-26T08:48:18.924Z,26.21
2022-08-26T08:49:17.944Z,26.36
2022-08-26T08:50:17.979Z,26.54
2022-08-26T08:51:17.873Z,26.59
2022-08-26T08:52:17.866Z,26.66
2022-08-26T08:53:17.877Z,26.83
2022-08-26T08:54:17.850Z,26.81
2022-08-26T08:55:18.651Z,26.83
2022-08-26T08:56:18.860Z,26.93
2022-08-26T08:57:17.862Z,26.93
2022-08-26T08:58:19.190Z,27.01
2022-08-26T08:59:17.890Z,26.86
2022-08-26T09:00:17.881Z,26.72
2022-08-26T09:01:17.828Z,26.68
2022-08-26T09:02:17.833Z,26.81
2022-08-26T09:03:17.778Z,26.71
2022-08-26T09:04:17.750Z,26.53
2022-08-26T09:05:17.740Z,26.46
2022-08-26T09:06:17.734Z,26.51
2022-08-26T09:07:17.723Z,26.57
2022-08-26T09:08:19.746Z,26.56
2022-08-26T09:09:17.704Z,26.73
2022-08-26T09:10:17.765Z,26.88
2022-08-26T09:11:17.759Z,26.93
2022-08-26T09:12:17.719Z,26.96
2022-08-26T09:13:25.267Z,26.97
2022-08-26T09:14:18.673Z,26.86
2022-08-26T09:15:17.651Z,26.94
2022-08-26T09:16:19.120Z,27.06
2022-08-26T09:17:17.642Z,27.24
2022-08-26T09:18:17.726Z,27.27
2022-08-26T09:19:19.059Z,27.27
2022-08-26T09:20:17.697Z,27.33
2022-08-26T09:21:17.894Z,27.38
2022-08-26T09:22:17.618Z,27.21
2022-08-26T09:23:18.237Z,27.23
2022-08-26T09:24:18.211Z,27.28
2022-08-26T09:25:18.739Z,27.13
2022-08-26T09:26:17.548Z,27.23
2022-08-26T09:27:17.539Z,27.12
2022-08-26T09:28:17.535Z,27.05
2022-08-26T09:29:17.631Z,26.86
2022-08-26T09:30:17.641Z,27.01
2022-08-26T09:31:17.560Z,27.02
2022-08-26T09:32:17.499Z,27.16
2022-08-26T09:33:17.527Z,27.33
2022-08-26T09:34:17.868Z,27.59
2022-08-26T09:35:17.476Z,27.74
2022-08-26T09:36:17.465Z,27.69
2022-08-26T09:37:17.448Z,27.68
2022-08-26T09:38:17.435Z,27.68
2022-08-26T09:39:18.457Z,27.72
2022-08-26T09:40:17.574Z,27.99
2022-08-26T09:41:17.421Z,27.86
2022-08-26T09:42:17.408Z,27.77
2022-08-26T09:43:22.633Z,27.96
2022-08-26T09:44:18.407Z,27.99
2022-08-26T09:45:17.378Z,27.98
2022-08-26T09:46:17.486Z,28.01
2022-08-26T09:47:17.368Z,28.03
2022-08-26T09:48:17.388Z,28.06
2022-08-26T09:49:17.364Z,28.13
2022-08-26T09:50:17.339Z,28.24
2022-08-26T09:51:17.333Z,28.18
2022-08-26T09:52:17.317Z,28.30
2022-08-26T09:53:17.305Z,28.18
2022-08-26T09:54:17.321Z,28.23
2022-08-26T09:55:17.301Z,28.38
2022-08-26T09:56:17.280Z,28.38
2022-08-26T09:57:17.275Z,28.30
2022-08-26T09:58:17.267Z,28.54
2022-08-26T09:59:18.923Z,28.67
2022-08-26T10:00:17.248Z,28.73
2022-08-26T10:01:17.256Z,28.88
2022-08-26T10:02:17.232Z,29.02
2022-08-26T10:03:17.474Z,29.08
2022-08-26T10:04:17.335Z,28.98
2022-08-26T10:05:17.201Z,28.85
2022-08-26T10:06:17.198Z,28.87
2022-08-26T10:07:17.198Z,28.73
2022-08-26T10:08:17.177Z,28.69
2022-08-26T10:09:17.195Z,28.87
2022-08-26T10:10:17.165Z,28.94
2022-08-26T10:11:17.150Z,28.87
2022-08-26T10:12:17.141Z,29.00
2022-08-26T10:13:17.144Z,28.87
2022-08-26T10:14:17.150Z,28.85
2022-08-26T10:15:17.116Z,28.98
2022-08-26T10:16:17.264Z,28.92
2022-08-26T10:17:17.095Z,28.95
2022-08-26T10:18:18.091Z,28.95
2022-08-26T10:19:17.080Z,28.61
2022-08-26T10:20:23.491Z,28.72
2022-08-26T10:21:18.207Z,28.88
2022-08-26T10:22:17.052Z,29.14
2022-08-26T10:23:17.047Z,29.25
2022-08-26T10:24:17.040Z,29.30
2022-08-26T10:25:17.044Z,29.35
2022-08-26T10:26:17.019Z,29.60
2022-08-26T10:27:17.010Z,29.71
2022-08-26T10:28:16.995Z,29.84
2022-08-26T10:29:16.987Z,29.49
2022-08-26T10:30:17.000Z,29.14
2022-08-26T10:31:16.973Z,29.02
2022-08-26T10:32:17.009Z,29.36
2022-08-26T10:33:18.009Z,29.52
2022-08-26T10:34:16.950Z,29.86
2022-08-26T10:35:17.032Z,30.15
2022-08-26T10:36:16.943Z,30.51
2022-08-26T10:37:16.924Z,30.79
2022-08-26T10:38:16.926Z,30.94
2022-08-26T10:39:16.898Z,31.00
2022-08-26T10:40:17.029Z,30.93
2022-08-26T10:41:18.268Z,30.36
2022-08-26T10:42:16.867Z,30.42
2022-08-26T10:43:16.860Z,30.36
2022-08-26T10:44:16.850Z,30.16
2022-08-26T10:45:16.869Z,30.36
2022-08-26T10:46:16.887Z,30.22
2022-08-26T10:47:16.825Z,30.13
2022-08-26T10:48:16.817Z,30.03
2022-08-26T10:49:16.806Z,30.26
2022-08-26T10:50:18.133Z,30.54
2022-08-26T10:51:16.806Z,30.64
2022-08-26T10:52:16.827Z,30.53
2022-08-26T10:53:16.782Z,30.29
2022-08-26T10:54:16.763Z,30.54
2022-08-26T10:55:16.753Z,31.01
2022-08-26T10:56:18.896Z,31.27
2022-08-26T10:57:16.728Z,31.01
2022-08-26T10:58:26.645Z,31.27
2022-08-26T10:59:17.715Z,31.79
2022-08-26T11:00:16.699Z,32.02
2022-08-26T11:01:16.944Z,32.44
2022-08-26T11:02:21.527Z,32.87
2022-08-26T11:03:21.913Z,32.61
2022-08-26T11:04:17.760Z,31.82
2022-08-26T11:05:16.660Z,31.31
2022-08-26T11:06:16.664Z,31.00
2022-08-26T11:07:16.637Z,31.42
2022-08-26T11:08:16.628Z,31.23
2022-08-26T11:09:16.618Z,30.81
2022-08-26T11:10:16.620Z,30.70
2022-08-26T11:11:16.638Z,30.90
2022-08-26T11:12:16.629Z,31.03
2022-08-26T11:13:16.607Z,31.50
2022-08-26T11:14:16.574Z,31.68
2022-08-26T11:15:17.565Z,31.04
2022-08-26T11:16:16.760Z,30.93
2022-08-26T11:17:16.547Z,30.85
2022-08-26T11:18:16.535Z,30.15
2022-08-26T11:19:16.521Z,30.29
2022-08-26T11:20:16.542Z,30.78
2022-08-26T11:21:16.506Z,31.12
2022-08-26T11:22:16.520Z,31.57
2022-08-26T11:23:16.491Z,32.03
2022-08-26T11:24:16.482Z,32.27
2022-08-26T11:25:16.477Z,32.46
2022-08-26T11:26:35.626Z,32.69
2022-08-26T11:27:17.472Z,32.17
2022-08-26T11:28:16.449Z,30.86
2022-08-26T11:29:16.437Z,31.16
2022-08-26T11:30:18.287Z,31.68
2022-08-26T11:31:16.578Z,31.95
2022-08-26T11:32:16.430Z,32.35
2022-08-26T11:33:16.421Z,32.62
2022-08-26T11:34:16.416Z,32.85
2022-08-26T11:35:16.383Z,33.14
2022-08-26T11:36:16.373Z,33.28
2022-08-26T11:37:16.446Z,33.66
2022-08-26T11:38:16.358Z,33.97
2022-08-26T11:39:16.344Z,33.03
2022-08-26T11:40:16.370Z,32.85
2022-08-26T11:41:16.325Z,32.50
2022-08-26T11:42:16.357Z,32.29
2022-08-26T11:43:16.315Z,31.68
2022-08-26T11:44:16.298Z,31.16
2022-08-26T11:45:16.291Z,30.42
2022-08-26T11:46:16.316Z,30.54
2022-08-26T11:47:16.300Z,30.75
2022-08-26T11:48:16.263Z,30.76
2022-08-26T11:49:16.254Z,30.81
2022-08-26T11:50:16.245Z,31.05
2022-08-26T11:51:16.239Z,31.57
2022-08-26T11:52:16.228Z,31.62
2022-08-26T11:53:16.232Z,31.47
2022-08-26T11:54:16.207Z,31.34
2022-08-26T11:55:16.203Z,31.52
2022-08-26T11:56:16.191Z,31.85
2022-08-26T11:57:16.187Z,31.98
2022-08-26T11:58:16.185Z,32.05
2022-08-26T11:59:16.160Z,32.22
2022-08-26T12:00:20.520Z,32.29
2022-08-26T12:01:17.153Z,32.13
2022-08-26T12:02:16.138Z,31.71
2022-08-26T12:03:16.164Z,31.41
2022-08-26T12:04:16.244Z,31.42
2022-08-26T12:05:16.110Z,31.10
2022-08-26T12:06:16.151Z,31.37
2022-08-26T12:07:16.092Z,31.54
2022-08-26T12:08:17.099Z,31.54
2022-08-26T12:09:16.076Z,31.50
2022-08-26T12:10:16.068Z,31.12
2022-08-26T12:11:16.062Z,31.25
2022-08-26T12:12:16.048Z,31.04
2022-08-26T12:13:16.059Z,30.67
2022-08-26T12:14:16.033Z,30.48
2022-08-26T12:15:16.021Z,30.72
2022-08-26T12:16:16.099Z,30.64
2022-08-26T12:17:16.004Z,30.54
2022-08-26T12:18:16.005Z,30.73
2022-08-26T12:19:15.977Z,30.42
2022-08-26T12:20:15.961Z,30.38
2022-08-26T12:21:15.965Z,30.54
2022-08-26T12:22:15.950Z,30.70
2022-08-26T12:23:15.958Z,30.97
2022-08-26T12:24:15.929Z,31.01
2022-08-26T12:25:15.952Z,31.19
2022-08-26T12:26:15.916Z,31.38
2022-08-26T12:27:15.907Z,31.19
2022-08-26T12:28:15.902Z,31.25
2022-08-26T12:29:19.984Z,31.41
2022-08-26T12:30:15.878Z,31.65
2022-08-26T12:31:15.938Z,31.72
2022-08-26T12:32:15.867Z,31.90
2022-08-26T12:33:23.007Z,31.65
2022-08-26T12:34:18.230Z,31.42
2022-08-26T12:35:15.834Z,31.20
2022-08-26T12:36:15.819Z,31.32
2022-08-26T12:37:15.813Z,31.25
2022-08-26T12:38:15.818Z,31.23
2022-08-26T12:39:15.798Z,31.35
2022-08-26T12:40:15.855Z,31.46
2022-08-26T12:41:15.779Z,31.49
2022-08-26T12:42:15.760Z,31.37
2022-08-26T12:43:15.771Z,31.22
2022-08-26T12:44:15.744Z,31.22
2022-08-26T12:45:15.774Z,31.20
2022-08-26T12:46:15.723Z,31.16
2022-08-26T12:47:15.716Z,31.30
2022-08-26T12:48:16.716Z,31.38
2022-08-26T12:49:15.697Z,31.25
2022-08-26T12:50:15.686Z,31.38
2022-08-26T12:51:15.676Z,31.35
2022-08-26T12:52:15.665Z,31.56